sensor_id;sensor_type;location;lat;lon;timestamp;P1;durP1;ratioP1;P2;durP2;ratioP2
55090;SDS011;40985;53.180;5.800;2022-10-30T00:01:24;25.17;;;14.40;;
55090;SDS011;40985;53.180;5.800;2022-10-30T00:03:50;28.92;;;13.40;;
55090;SDS011;40985;53.180;5.800;2022-10-30T00:06:15;30.23;;;14.77;;
55090;SDS011;40985;53.180;5.800;2022-10-30T00:08:41;27.55;;;13.35;;
55090;SDS011;40985;53.180;5.800;2022-10-30T00:11:07;23.70;;;13.18;;
55090;SDS011;40985;53.180;5.800;2022-10-30T00:13:35;25.15;;;14.02;;
55090;SDS011;40985;53.180;5.800;2022-10-30T00:16:02;24.10;;;13.15;;
55090;SDS011;40985;53.180;5.800;2022-10-30T00:18:30;20.48;;;13.32;;
55090;SDS011;40985;53.180;5.800;2022-10-30T00:20:56;24.92;;;14.90;;
55090;SDS011;40985;53.180;5.800;2022-10-30T00:23:21;21.95;;;12.93;;
55090;SDS011;40985;53.180;5.800;2022-10-30T00:25:47;27.35;;;13.65;;
55090;SDS011;40985;53.180;5.800;2022-10-30T00:28:13;22.95;;;13.05;;
55090;SDS011;40985;53.180;5.800;2022-10-30T00:30:38;23.60;;;12.60;;
55090;SDS011;40985;53.180;5.800;2022-10-30T00:33:04;26.88;;;14.00;;
55090;SDS011;40985;53.180;5.800;2022-10-30T00:35:30;23.45;;;13.15;;
55090;SDS011;40985;53.180;5.800;2022-10-30T00:37:56;23.52;;;12.85;;
55090;SDS011;40985;53.180;5.800;2022-10-30T00:40:22;26.75;;;12.48;;
55090;SDS011;40985;53.180;5.800;2022-10-30T00:42:48;25.73;;;12.60;;
55090;SDS011;40985;53.180;5.800;2022-10-30T00:45:14;24.67;;;12.60;;
55090;SDS011;40985;53.180;5.800;2022-10-30T00:47:45;23.27;;;12.50;;
55090;SDS011;40985;53.180;5.800;2022-10-30T00:55:41;33.75;;;14.30;;
55090;SDS011;40985;53.180;5.800;2022-10-30T00:58:13;25.95;;;13.38;;
55090;SDS011;40985;53.180;5.800;2022-10-30T01:00:42;22.67;;;13.27;;
55090;SDS011;40985;53.180;5.800;2022-10-30T01:03:12;23.85;;;14.48;;
55090;SDS011;40985;53.180;5.800;2022-10-30T01:05:39;22.48;;;11.93;;
55090;SDS011;40985;53.180;5.800;2022-10-30T01:08:06;22.80;;;12.02;;
55090;SDS011;40985;53.180;5.800;2022-10-30T01:10:32;24.88;;;12.45;;
55090;SDS011;40985;53.180;5.800;2022-10-30T01:12:57;23.85;;;12.93;;
55090;SDS011;40985;53.180;5.800;2022-10-30T01:15:31;25.02;;;12.55;;
55090;SDS011;40985;53.180;5.800;2022-10-30T01:34:50;23.63;;;13.40;;
55090;SDS011;40985;53.180;5.800;2022-10-30T01:40:14;27.30;;;13.80;;
55090;SDS011;40985;53.180;5.800;2022-10-30T01:45:15;22.55;;;12.27;;
55090;SDS011;40985;53.180;5.800;2022-10-30T01:58:59;24.40;;;12.85;;
55090;SDS011;40985;53.180;5.800;2022-10-30T02:01:27;27.40;;;13.65;;
55090;SDS011;40985;53.180;5.800;2022-10-30T02:03:53;24.45;;;12.75;;
55090;SDS011;40985;53.180;5.800;2022-10-30T02:06:19;26.50;;;14.02;;
55090;SDS011;40985;53.180;5.800;2022-10-30T02:08:44;24.90;;;13.55;;
55090;SDS011;40985;53.180;5.800;2022-10-30T02:11:10;26.80;;;14.57;;
55090;SDS011;40985;53.180;5.800;2022-10-30T02:13:37;26.77;;;13.75;;
55090;SDS011;40985;53.180;5.800;2022-10-30T02:16:03;26.27;;;13.80;;
55090;SDS011;40985;53.180;5.800;2022-10-30T02:18:29;23.40;;;12.82;;
55090;SDS011;40985;53.180;5.800;2022-10-30T02:20:55;24.20;;;12.88;;
55090;SDS011;40985;53.180;5.800;2022-10-30T02:23:20;31.40;;;13.60;;
55090;SDS011;40985;53.180;5.800;2022-10-30T02:25:46;26.08;;;13.02;;
55090;SDS011;40985;53.180;5.800;2022-10-30T02:28:12;25.38;;;13.43;;
55090;SDS011;40985;53.180;5.800;2022-10-30T02:30:38;23.88;;;13.70;;
55090;SDS011;40985;53.180;5.800;2022-10-30T02:33:08;21.58;;;13.70;;
55090;SDS011;40985;53.180;5.800;2022-10-30T02:35:34;24.58;;;13.85;;
55090;SDS011;40985;53.180;5.800;2022-10-30T02:37:59;23.52;;;14.05;;
55090;SDS011;40985;53.180;5.800;2022-10-30T02:40:26;27.27;;;14.20;;
55090;SDS011;40985;53.180;5.800;2022-10-30T02:42:52;23.80;;;13.32;;
55090;SDS011;40985;53.180;5.800;2022-10-30T02:45:19;24.67;;;13.00;;
55090;SDS011;40985;53.180;5.800;2022-10-30T02:47:45;26.83;;;13.88;;
55090;SDS011;40985;53.180;5.800;2022-10-30T02:50:11;21.45;;;12.05;;
55090;SDS011;40985;53.180;5.800;2022-10-30T02:52:36;22.23;;;12.90;;
55090;SDS011;40985;53.180;5.800;2022-10-30T02:55:02;24.55;;;13.43;;
55090;SDS011;40985;53.180;5.800;2022-10-30T02:57:28;22.42;;;13.63;;
55090;SDS011;40985;53.180;5.800;2022-10-30T02:59:54;25.55;;;13.88;;
55090;SDS011;40985;53.180;5.800;2022-10-30T03:02:20;20.98;;;12.50;;
55090;SDS011;40985;53.180;5.800;2022-10-30T03:04:45;23.75;;;13.57;;
55090;SDS011;40985;53.180;5.800;2022-10-30T03:07:11;28.25;;;13.88;;
55090;SDS011;40985;53.180;5.800;2022-10-30T03:09:37;31.63;;;14.35;;
55090;SDS011;40985;53.180;5.800;2022-10-30T03:12:02;29.50;;;13.05;;
55090;SDS011;40985;53.180;5.800;2022-10-30T03:14:28;25.65;;;13.85;;
55090;SDS011;40985;53.180;5.800;2022-10-30T03:16:54;26.48;;;15.15;;
55090;SDS011;40985;53.180;5.800;2022-10-30T03:19:19;24.85;;;13.23;;
55090;SDS011;40985;53.180;5.800;2022-10-30T03:21:45;21.08;;;13.57;;
55090;SDS011;40985;53.180;5.800;2022-10-30T03:24:11;24.55;;;14.23;;
55090;SDS011;40985;53.180;5.800;2022-10-30T03:26:37;25.27;;;14.13;;
55090;SDS011;40985;53.180;5.800;2022-10-30T03:29:02;22.90;;;13.57;;
55090;SDS011;40985;53.180;5.800;2022-10-30T03:31:29;25.63;;;14.10;;
55090;SDS011;40985;53.180;5.800;2022-10-30T03:33:56;21.80;;;14.45;;
55090;SDS011;40985;53.180;5.800;2022-10-30T03:36:21;24.77;;;14.50;;
55090;SDS011;40985;53.180;5.800;2022-10-30T03:38:48;25.98;;;15.27;;
55090;SDS011;40985;53.180;5.800;2022-10-30T03:41:14;23.60;;;13.70;;
55090;SDS011;40985;53.180;5.800;2022-10-30T03:43:40;26.13;;;14.30;;
55090;SDS011;40985;53.180;5.800;2022-10-30T03:46:06;26.15;;;14.95;;
55090;SDS011;40985;53.180;5.800;2022-10-30T03:48:33;28.20;;;15.25;;
55090;SDS011;40985;53.180;5.800;2022-10-30T03:50:58;28.50;;;15.50;;
55090;SDS011;40985;53.180;5.800;2022-10-30T03:53:24;27.27;;;15.32;;
55090;SDS011;40985;53.180;5.800;2022-10-30T03:55:51;23.02;;;14.27;;
55090;SDS011;40985;53.180;5.800;2022-10-30T03:58:20;30.23;;;15.32;;
55090;SDS011;40985;53.180;5.800;2022-10-30T04:00:46;25.73;;;15.07;;
55090;SDS011;40985;53.180;5.800;2022-10-30T04:03:11;29.10;;;16.77;;
55090;SDS011;40985;53.180;5.800;2022-10-30T04:05:37;22.33;;;14.95;;
55090;SDS011;40985;53.180;5.800;2022-10-30T04:08:04;34.05;;;16.25;;
55090;SDS011;40985;53.180;5.800;2022-10-30T04:10:31;25.90;;;15.52;;
55090;SDS011;40985;53.180;5.800;2022-10-30T04:12:58;32.28;;;15.77;;
55090;SDS011;40985;53.180;5.800;2022-10-30T04:15:25;28.88;;;16.52;;
55090;SDS011;40985;53.180;5.800;2022-10-30T04:17:51;26.80;;;16.83;;
55090;SDS011;40985;53.180;5.800;2022-10-30T04:20:17;32.05;;;16.08;;
55090;SDS011;40985;53.180;5.800;2022-10-30T04:22:44;23.27;;;15.95;;
55090;SDS011;40985;53.180;5.800;2022-10-30T04:25:10;33.65;;;16.15;;
55090;SDS011;40985;53.180;5.800;2022-10-30T04:27:42;31.27;;;15.85;;
55090;SDS011;40985;53.180;5.800;2022-10-30T04:30:09;29.17;;;16.52;;
55090;SDS011;40985;53.180;5.800;2022-10-30T04:32:46;29.98;;;16.88;;
55090;SDS011;40985;53.180;5.800;2022-10-30T04:35:17;30.33;;;16.20;;
55090;SDS011;40985;53.180;5.800;2022-10-30T04:37:53;31.80;;;17.52;;
55090;SDS011;40985;53.180;5.800;2022-10-30T04:40:20;29.95;;;16.58;;
55090;SDS011;40985;53.180;5.800;2022-10-30T04:42:50;30.65;;;17.13;;
55090;SDS011;40985;53.180;5.800;2022-10-30T04:45:15;31.35;;;16.88;;
55090;SDS011;40985;53.180;5.800;2022-10-30T04:47:42;31.77;;;16.08;;
55090;SDS011;40985;53.180;5.800;2022-10-30T04:50:08;32.05;;;16.63;;
55090;SDS011;40985;53.180;5.800;2022-10-30T04:52:34;35.25;;;17.40;;
55090;SDS011;40985;53.180;5.800;2022-10-30T04:55:00;27.55;;;16.10;;
55090;SDS011;40985;53.180;5.800;2022-10-30T04:57:26;29.77;;;17.20;;
55090;SDS011;40985;53.180;5.800;2022-10-30T04:59:52;31.50;;;16.90;;
55090;SDS011;40985;53.180;5.800;2022-10-30T05:02:17;35.83;;;16.08;;
55090;SDS011;40985;53.180;5.800;2022-10-30T05:04:46;35.00;;;18.02;;
55090;SDS011;40985;53.180;5.800;2022-10-30T05:07:12;33.97;;;16.98;;
55090;SDS011;40985;53.180;5.800;2022-10-30T05:09:38;34.15;;;16.98;;
55090;SDS011;40985;53.180;5.800;2022-10-30T05:12:04;28.85;;;16.40;;
55090;SDS011;40985;53.180;5.800;2022-10-30T05:14:31;33.85;;;17.85;;
55090;SDS011;40985;53.180;5.800;2022-10-30T05:16:57;34.13;;;18.00;;
55090;SDS011;40985;53.180;5.800;2022-10-30T05:19:23;32.00;;;17.73;;
55090;SDS011;40985;53.180;5.800;2022-10-30T05:21:49;32.88;;;17.25;;
55090;SDS011;40985;53.180;5.800;2022-10-30T05:24:15;29.92;;;17.45;;
55090;SDS011;40985;53.180;5.800;2022-10-30T05:26:41;37.33;;;19.52;;
55090;SDS011;40985;53.180;5.800;2022-10-30T05:29:07;32.80;;;17.38;;
55090;SDS011;40985;53.180;5.800;2022-10-30T05:31:32;36.55;;;17.60;;
55090;SDS011;40985;53.180;5.800;2022-10-30T05:33:58;37.05;;;18.05;;
55090;SDS011;40985;53.180;5.800;2022-10-30T05:36:24;35.60;;;18.67;;
55090;SDS011;40985;53.180;5.800;2022-10-30T05:38:49;27.92;;;17.65;;
55090;SDS011;40985;53.180;5.800;2022-10-30T05:41:15;33.50;;;17.23;;
55090;SDS011;40985;53.180;5.800;2022-10-30T05:43:41;37.92;;;17.77;;
55090;SDS011;40985;53.180;5.800;2022-10-30T05:46:06;33.55;;;17.48;;
55090;SDS011;40985;53.180;5.800;2022-10-30T05:48:32;34.10;;;18.80;;
55090;SDS011;40985;53.180;5.800;2022-10-30T05:50:57;33.38;;;16.77;;
55090;SDS011;40985;53.180;5.800;2022-10-30T05:53:23;34.85;;;17.08;;
55090;SDS011;40985;53.180;5.800;2022-10-30T05:55:49;38.20;;;18.85;;
55090;SDS011;40985;53.180;5.800;2022-10-30T05:58:15;33.50;;;18.00;;
55090;SDS011;40985;53.180;5.800;2022-10-30T06:00:41;34.22;;;17.77;;
55090;SDS011;40985;53.180;5.800;2022-10-30T06:03:11;34.15;;;18.75;;
55090;SDS011;40985;53.180;5.800;2022-10-30T06:05:37;35.42;;;17.77;;
55090;SDS011;40985;53.180;5.800;2022-10-30T06:08:04;37.47;;;19.17;;
55090;SDS011;40985;53.180;5.800;2022-10-30T06:10:31;36.38;;;17.83;;
55090;SDS011;40985;53.180;5.800;2022-10-30T06:12:58;43.78;;;20.30;;
55090;SDS011;40985;53.180;5.800;2022-10-30T06:15:26;37.85;;;19.83;;
55090;SDS011;40985;53.180;5.800;2022-10-30T06:17:52;38.78;;;20.52;;
55090;SDS011;40985;53.180;5.800;2022-10-30T06:20:18;32.65;;;19.60;;
55090;SDS011;40985;53.180;5.800;2022-10-30T06:22:52;43.58;;;20.75;;
55090;SDS011;40985;53.180;5.800;2022-10-30T06:25:21;45.75;;;19.95;;
55090;SDS011;40985;53.180;5.800;2022-10-30T06:27:48;27.67;;;15.57;;
55090;SDS011;40985;53.180;5.800;2022-10-30T06:30:14;27.42;;;15.32;;
55090;SDS011;40985;53.180;5.800;2022-10-30T06:32:40;31.08;;;17.75;;
55090;SDS011;40985;53.180;5.800;2022-10-30T06:35:06;27.15;;;16.70;;
55090;SDS011;40985;53.180;5.800;2022-10-30T06:37:32;29.02;;;17.48;;
55090;SDS011;40985;53.180;5.800;2022-10-30T06:39:58;30.17;;;17.20;;
55090;SDS011;40985;53.180;5.800;2022-10-30T06:42:24;34.97;;;18.55;;
55090;SDS011;40985;53.180;5.800;2022-10-30T06:44:50;44.90;;;21.85;;
55090;SDS011;40985;53.180;5.800;2022-10-30T06:47:16;33.50;;;19.65;;
55090;SDS011;40985;53.180;5.800;2022-10-30T06:49:41;49.05;;;20.90;;
55090;SDS011;40985;53.180;5.800;2022-10-30T06:52:07;45.53;;;22.98;;
55090;SDS011;40985;53.180;5.800;2022-10-30T06:54:33;39.88;;;20.70;;
55090;SDS011;40985;53.180;5.800;2022-10-30T06:56:58;35.03;;;19.90;;
55090;SDS011;40985;53.180;5.800;2022-10-30T06:59:24;51.38;;;22.33;;
55090;SDS011;40985;53.180;5.800;2022-10-30T07:01:50;52.55;;;23.48;;
55090;SDS011;40985;53.180;5.800;2022-10-30T07:04:16;51.38;;;22.70;;
55090;SDS011;40985;53.180;5.800;2022-10-30T07:06:41;45.13;;;22.45;;
55090;SDS011;40985;53.180;5.800;2022-10-30T07:09:07;41.22;;;22.45;;
55090;SDS011;40985;53.180;5.800;2022-10-30T07:11:33;44.38;;;22.05;;
55090;SDS011;40985;53.180;5.800;2022-10-30T07:13:58;48.60;;;22.52;;
55090;SDS011;40985;53.180;5.800;2022-10-30T07:16:24;45.50;;;23.15;;
55090;SDS011;40985;53.180;5.800;2022-10-30T07:18:50;48.38;;;23.15;;
55090;SDS011;40985;53.180;5.800;2022-10-30T07:21:16;45.42;;;23.33;;
55090;SDS011;40985;53.180;5.800;2022-10-30T07:23:41;52.70;;;24.85;;
55090;SDS011;40985;53.180;5.800;2022-10-30T07:26:07;51.60;;;24.20;;
55090;SDS011;40985;53.180;5.800;2022-10-30T07:28:33;46.72;;;22.75;;
55090;SDS011;40985;53.180;5.800;2022-10-30T07:30:58;47.15;;;24.25;;
55090;SDS011;40985;53.180;5.800;2022-10-30T07:33:24;40.03;;;22.92;;
55090;SDS011;40985;53.180;5.800;2022-10-30T07:35:50;42.95;;;22.98;;
55090;SDS011;40985;53.180;5.800;2022-10-30T07:38:15;44.05;;;24.83;;
55090;SDS011;40985;53.180;5.800;2022-10-30T07:40:42;49.88;;;24.90;;
55090;SDS011;40985;53.180;5.800;2022-10-30T07:43:08;45.78;;;23.83;;
55090;SDS011;40985;53.180;5.800;2022-10-30T07:45:37;42.75;;;23.85;;
55090;SDS011;40985;53.180;5.800;2022-10-30T07:48:04;44.83;;;24.58;;
55090;SDS011;40985;53.180;5.800;2022-10-30T07:50:30;43.30;;;22.08;;
55090;SDS011;40985;53.180;5.800;2022-10-30T07:52:56;41.70;;;22.85;;
55090;SDS011;40985;53.180;5.800;2022-10-30T07:55:21;49.38;;;24.55;;
55090;SDS011;40985;53.180;5.800;2022-10-30T07:57:48;42.60;;;23.25;;
55090;SDS011;40985;53.180;5.800;2022-10-30T08:00:14;45.92;;;25.00;;
55090;SDS011;40985;53.180;5.800;2022-10-30T08:02:40;43.70;;;23.58;;
55090;SDS011;40985;53.180;5.800;2022-10-30T08:05:06;40.20;;;22.17;;
55090;SDS011;40985;53.180;5.800;2022-10-30T08:07:33;45.78;;;23.23;;
55090;SDS011;40985;53.180;5.800;2022-10-30T08:10:01;36.35;;;21.88;;
55090;SDS011;40985;53.180;5.800;2022-10-30T08:12:27;41.17;;;21.88;;
55090;SDS011;40985;53.180;5.800;2022-10-30T08:14:53;38.92;;;22.83;;
55090;SDS011;40985;53.180;5.800;2022-10-30T08:17:19;43.05;;;23.85;;
55090;SDS011;40985;53.180;5.800;2022-10-30T08:19:45;42.67;;;21.95;;
55090;SDS011;40985;53.180;5.800;2022-10-30T08:22:11;39.78;;;22.75;;
55090;SDS011;40985;53.180;5.800;2022-10-30T08:24:38;40.63;;;22.70;;
55090;SDS011;40985;53.180;5.800;2022-10-30T08:27:04;38.40;;;23.02;;
55090;SDS011;40985;53.180;5.800;2022-10-30T08:29:30;40.72;;;22.42;;
55090;SDS011;40985;53.180;5.800;2022-10-30T08:31:56;37.97;;;21.05;;
55090;SDS011;40985;53.180;5.800;2022-10-30T08:34:21;37.88;;;21.58;;
55090;SDS011;40985;53.180;5.800;2022-10-30T08:36:48;37.22;;;21.08;;
55090;SDS011;40985;53.180;5.800;2022-10-30T08:39:15;36.03;;;20.95;;
55090;SDS011;40985;53.180;5.800;2022-10-30T08:41:41;34.38;;;21.35;;
55090;SDS011;40985;53.180;5.800;2022-10-30T08:44:07;34.42;;;20.23;;
55090;SDS011;40985;53.180;5.800;2022-10-30T08:46:33;32.45;;;19.42;;
55090;SDS011;40985;53.180;5.800;2022-10-30T08:48:59;27.42;;;20.00;;
55090;SDS011;40985;53.180;5.800;2022-10-30T08:51:25;29.55;;;19.40;;
55090;SDS011;40985;53.180;5.800;2022-10-30T08:53:51;33.80;;;20.30;;
55090;SDS011;40985;53.180;5.800;2022-10-30T08:56:16;29.38;;;20.38;;
55090;SDS011;40985;53.180;5.800;2022-10-30T08:58:42;32.90;;;19.02;;
55090;SDS011;40985;53.180;5.800;2022-10-30T09:01:08;31.27;;;19.05;;
55090;SDS011;40985;53.180;5.800;2022-10-30T09:03:34;34.75;;;20.20;;
55090;SDS011;40985;53.180;5.800;2022-10-30T09:06:00;35.55;;;19.00;;
55090;SDS011;40985;53.180;5.800;2022-10-30T09:08:26;30.35;;;17.75;;
55090;SDS011;40985;53.180;5.800;2022-10-30T09:10:56;30.65;;;17.60;;
55090;SDS011;40985;53.180;5.800;2022-10-30T09:13:22;31.75;;;16.90;;
55090;SDS011;40985;53.180;5.800;2022-10-30T09:15:48;32.50;;;18.60;;
55090;SDS011;40985;53.180;5.800;2022-10-30T09:18:14;25.75;;;16.17;;
55090;SDS011;40985;53.180;5.800;2022-10-30T09:20:40;27.60;;;16.25;;
55090;SDS011;40985;53.180;5.800;2022-10-30T09:23:05;32.88;;;16.45;;
55090;SDS011;40985;53.180;5.800;2022-10-30T09:25:31;25.40;;;16.77;;
55090;SDS011;40985;53.180;5.800;2022-10-30T09:27:57;28.17;;;17.63;;
55090;SDS011;40985;53.180;5.800;2022-10-30T09:30:23;28.17;;;16.58;;
55090;SDS011;40985;53.180;5.800;2022-10-30T09:32:58;26.77;;;16.45;;
55090;SDS011;40985;53.180;5.800;2022-10-30T09:35:28;27.88;;;15.23;;
55090;SDS011;40985;53.180;5.800;2022-10-30T09:37:56;25.00;;;15.40;;
55090;SDS011;40985;53.180;5.800;2022-10-30T09:45:40;23.85;;;14.18;;
55090;SDS011;40985;53.180;5.800;2022-10-30T09:51:12;24.67;;;15.48;;
55090;SDS011;40985;53.180;5.800;2022-10-30T09:56:44;25.52;;;13.77;;
55090;SDS011;40985;53.180;5.800;2022-10-30T09:59:16;23.35;;;14.38;;
55090;SDS011;40985;53.180;5.800;2022-10-30T10:07:48;22.20;;;13.05;;
55090;SDS011;40985;53.180;5.800;2022-10-30T10:10:21;25.02;;;12.80;;
55090;SDS011;40985;53.180;5.800;2022-10-30T10:13:04;23.38;;;13.48;;
55090;SDS011;40985;53.180;5.800;2022-10-30T10:18:16;24.27;;;13.93;;
55090;SDS011;40985;53.180;5.800;2022-10-30T10:20:47;29.20;;;14.27;;
55090;SDS011;40985;53.180;5.800;2022-10-30T10:23:17;24.25;;;12.73;;
55090;SDS011;40985;53.180;5.800;2022-10-30T10:25:53;19.00;;;11.77;;
55090;SDS011;40985;53.180;5.800;2022-10-30T10:31:27;21.27;;;11.40;;
55090;SDS011;40985;53.180;5.800;2022-10-30T10:34:20;23.42;;;10.52;;
55090;SDS011;40985;53.180;5.800;2022-10-30T10:42:34;19.33;;;9.95;;
55090;SDS011;40985;53.180;5.800;2022-10-30T10:48:13;16.05;;;9.88;;
55090;SDS011;40985;53.180;5.800;2022-10-30T10:50:48;19.15;;;10.32;;
55090;SDS011;40985;53.180;5.800;2022-10-30T10:56:08;21.83;;;9.90;;
55090;SDS011;40985;53.180;5.800;2022-10-30T10:58:37;15.85;;;10.52;;
55090;SDS011;40985;53.180;5.800;2022-10-30T11:01:13;15.35;;;9.25;;
55090;SDS011;40985;53.180;5.800;2022-10-30T11:03:44;17.67;;;10.20;;
55090;SDS011;40985;53.180;5.800;2022-10-30T11:06:30;15.68;;;10.38;;
55090;SDS011;40985;53.180;5.800;2022-10-30T11:09:20;18.38;;;9.10;;
55090;SDS011;40985;53.180;5.800;2022-10-30T11:11:48;19.17;;;9.50;;
55090;SDS011;40985;53.180;5.800;2022-10-30T11:14:20;21.88;;;10.60;;
55090;SDS011;40985;53.180;5.800;2022-10-30T11:19:32;16.77;;;8.32;;
55090;SDS011;40985;53.180;5.800;2022-10-30T11:21:58;23.08;;;9.68;;
55090;SDS011;40985;53.180;5.800;2022-10-30T11:26:58;17.75;;;8.75;;
55090;SDS011;40985;53.180;5.800;2022-10-30T11:32:19;19.33;;;8.25;;
55090;SDS011;40985;53.180;5.800;2022-10-30T11:34:58;19.98;;;8.73;;
55090;SDS011;40985;53.180;5.800;2022-10-30T11:37:37;17.27;;;8.48;;
55090;SDS011;40985;53.180;5.800;2022-10-30T11:40:05;14.25;;;8.35;;
55090;SDS011;40985;53.180;5.800;2022-10-30T11:42:41;15.88;;;8.50;;
55090;SDS011;40985;53.180;5.800;2022-10-30T11:45:17;17.83;;;8.10;;
55090;SDS011;40985;53.180;5.800;2022-10-30T11:47:55;14.05;;;7.22;;
55090;SDS011;40985;53.180;5.800;2022-10-30T11:50:23;13.65;;;7.20;;
55090;SDS011;40985;53.180;5.800;2022-10-30T11:52:53;13.02;;;6.35;;
55090;SDS011;40985;53.180;5.800;2022-10-30T11:55:23;14.57;;;6.00;;
55090;SDS011;40985;53.180;5.800;2022-10-30T11:57:55;15.02;;;6.82;;
55090;SDS011;40985;53.180;5.800;2022-10-30T12:00:25;13.57;;;6.68;;
55090;SDS011;40985;53.180;5.800;2022-10-30T12:02:57;12.55;;;5.63;;
55090;SDS011;40985;53.180;5.800;2022-10-30T12:05:28;19.17;;;6.10;;
55090;SDS011;40985;53.180;5.800;2022-10-30T12:10:43;17.40;;;6.22;;
55090;SDS011;40985;53.180;5.800;2022-10-30T12:13:14;10.50;;;5.50;;
55090;SDS011;40985;53.180;5.800;2022-10-30T12:15:42;12.88;;;5.25;;
55090;SDS011;40985;53.180;5.800;2022-10-30T12:18:30;11.85;;;5.72;;
55090;SDS011;40985;53.180;5.800;2022-10-30T12:20:56;12.57;;;5.88;;
55090;SDS011;40985;53.180;5.800;2022-10-30T12:23:23;11.70;;;5.80;;
55090;SDS011;40985;53.180;5.800;2022-10-30T12:25:52;13.25;;;6.13;;
55090;SDS011;40985;53.180;5.800;2022-10-30T12:28:27;13.43;;;6.32;;
55090;SDS011;40985;53.180;5.800;2022-10-30T12:33:45;10.73;;;4.60;;
55090;SDS011;40985;53.180;5.800;2022-10-30T12:36:21;13.95;;;5.13;;
55090;SDS011;40985;53.180;5.800;2022-10-30T12:38:51;13.48;;;5.25;;
55090;SDS011;40985;53.180;5.800;2022-10-30T12:41:42;12.18;;;6.47;;
55090;SDS011;40985;53.180;5.800;2022-10-30T12:44:17;15.80;;;5.93;;
55090;SDS011;40985;53.180;5.800;2022-10-30T12:47:00;14.18;;;5.93;;
55090;SDS011;40985;53.180;5.800;2022-10-30T12:57:32;10.93;;;5.40;;
55090;SDS011;40985;53.180;5.800;2022-10-30T13:00:10;13.18;;;4.50;;
55090;SDS011;40985;53.180;5.800;2022-10-30T13:08:46;14.90;;;6.60;;
55090;SDS011;40985;53.180;5.800;2022-10-30T13:11:01;10.23;;;5.93;;
55090;SDS011;40985;53.180;5.800;2022-10-30T13:13:43;10.90;;;5.57;;
55090;SDS011;40985;53.180;5.800;2022-10-30T13:16:21;13.85;;;5.53;;
55090;SDS011;40985;53.180;5.800;2022-10-30T13:18:52;11.32;;;5.40;;
55090;SDS011;40985;53.180;5.800;2022-10-30T13:34:59;12.32;;;6.65;;
55090;SDS011;40985;53.180;5.800;2022-10-30T13:37:54;13.30;;;5.75;;
55090;SDS011;40985;53.180;5.800;2022-10-30T13:40:34;12.00;;;6.32;;
55090;SDS011;40985;53.180;5.800;2022-10-30T13:56:42;16.63;;;8.45;;
55090;SDS011;40985;53.180;5.800;2022-10-30T14:02:16;15.70;;;7.60;;
55090;SDS011;40985;53.180;5.800;2022-10-30T14:08:07;19.00;;;8.40;;
55090;SDS011;40985;53.180;5.800;2022-10-30T14:10:57;22.52;;;9.70;;
55090;SDS011;40985;53.180;5.800;2022-10-30T14:13:25;21.23;;;10.32;;
55090;SDS011;40985;53.180;5.800;2022-10-30T14:15:53;16.13;;;9.30;;
55090;SDS011;40985;53.180;5.800;2022-10-30T14:20:55;16.83;;;8.30;;
55090;SDS011;40985;53.180;5.800;2022-10-30T14:23:23;17.13;;;8.82;;
55090;SDS011;40985;53.180;5.800;2022-10-30T14:28:26;17.50;;;8.75;;
55090;SDS011;40985;53.180;5.800;2022-10-30T14:36:18;15.73;;;8.18;;
55090;SDS011;40985;53.180;5.800;2022-10-30T14:58:38;18.23;;;9.10;;
55090;SDS011;40985;53.180;5.800;2022-10-30T15:03:51;14.45;;;9.52;;
55090;SDS011;40985;53.180;5.800;2022-10-30T15:06:28;18.92;;;10.52;;
55090;SDS011;40985;53.180;5.800;2022-10-30T15:14:37;18.58;;;9.82;;
55090;SDS011;40985;53.180;5.800;2022-10-30T15:17:26;18.75;;;10.48;;
55090;SDS011;40985;53.180;5.800;2022-10-30T15:19:56;20.15;;;11.07;;
55090;SDS011;40985;53.180;5.800;2022-10-30T15:22:25;19.20;;;10.25;;
55090;SDS011;40985;53.180;5.800;2022-10-30T15:24:53;23.00;;;10.68;;
55090;SDS011;40985;53.180;5.800;2022-10-30T15:27:20;22.17;;;10.63;;
55090;SDS011;40985;53.180;5.800;2022-10-30T15:29:49;18.75;;;9.93;;
55090;SDS011;40985;53.180;5.800;2022-10-30T15:32:18;23.38;;;10.27;;
55090;SDS011;40985;53.180;5.800;2022-10-30T15:35:02;18.08;;;10.07;;
55090;SDS011;40985;53.180;5.800;2022-10-30T15:42:40;18.90;;;10.18;;
55090;SDS011;40985;53.180;5.800;2022-10-30T15:45:11;18.42;;;10.10;;
55090;SDS011;40985;53.180;5.800;2022-10-30T15:47:46;22.02;;;10.43;;
55090;SDS011;40985;53.180;5.800;2022-10-30T15:50:16;27.20;;;12.40;;
55090;SDS011;40985;53.180;5.800;2022-10-30T15:52:44;22.13;;;10.65;;
55090;SDS011;40985;53.180;5.800;2022-10-30T15:55:14;18.88;;;11.23;;
55090;SDS011;40985;53.180;5.800;2022-10-30T15:57:50;20.23;;;11.60;;
55090;SDS011;40985;53.180;5.800;2022-10-30T16:00:22;20.20;;;11.48;;
55090;SDS011;40985;53.180;5.800;2022-10-30T16:05:36;25.08;;;12.82;;
55090;SDS011;40985;53.180;5.800;2022-10-30T16:08:02;21.63;;;12.25;;
55090;SDS011;40985;53.180;5.800;2022-10-30T16:10:34;20.48;;;12.65;;
55090;SDS011;40985;53.180;5.800;2022-10-30T16:13:00;19.38;;;12.05;;
55090;SDS011;40985;53.180;5.800;2022-10-30T16:15:32;22.90;;;12.60;;
55090;SDS011;40985;53.180;5.800;2022-10-30T16:20:38;20.27;;;13.48;;
55090;SDS011;40985;53.180;5.800;2022-10-30T16:23:06;27.38;;;13.90;;
55090;SDS011;40985;53.180;5.800;2022-10-30T16:25:32;27.70;;;14.32;;
55090;SDS011;40985;53.180;5.800;2022-10-30T16:28:01;26.70;;;13.77;;
55090;SDS011;40985;53.180;5.800;2022-10-30T16:30:28;22.85;;;13.98;;
55090;SDS011;40985;53.180;5.800;2022-10-30T16:32:56;24.15;;;13.25;;
55090;SDS011;40985;53.180;5.800;2022-10-30T16:35:23;25.98;;;13.98;;
55090;SDS011;40985;53.180;5.800;2022-10-30T16:37:50;21.35;;;13.82;;
55090;SDS011;40985;53.180;5.800;2022-10-30T16:40:17;24.23;;;14.88;;
55090;SDS011;40985;53.180;5.800;2022-10-30T16:42:48;26.55;;;14.60;;
55090;SDS011;40985;53.180;5.800;2022-10-30T16:48:00;22.10;;;14.27;;
55090;SDS011;40985;53.180;5.800;2022-10-30T16:50:34;29.63;;;14.95;;
55090;SDS011;40985;53.180;5.800;2022-10-30T16:53:04;26.85;;;16.17;;
55090;SDS011;40985;53.180;5.800;2022-10-30T16:55:31;20.77;;;14.23;;
55090;SDS011;40985;53.180;5.800;2022-10-30T16:57:57;22.83;;;14.95;;
55090;SDS011;40985;53.180;5.800;2022-10-30T17:00:25;21.80;;;15.73;;
55090;SDS011;40985;53.180;5.800;2022-10-30T17:02:53;26.70;;;17.27;;
55090;SDS011;40985;53.180;5.800;2022-10-30T17:05:28;25.95;;;16.60;;
55090;SDS011;40985;53.180;5.800;2022-10-30T17:07:56;25.63;;;17.13;;
55090;SDS011;40985;53.180;5.800;2022-10-30T17:10:28;26.23;;;17.88;;
55090;SDS011;40985;53.180;5.800;2022-10-30T17:18:45;39.15;;;23.33;;
55090;SDS011;40985;53.180;5.800;2022-10-30T17:21:11;67.53;;;48.03;;
55090;SDS011;40985;53.180;5.800;2022-10-30T17:23:44;42.15;;;28.15;;
55090;SDS011;40985;53.180;5.800;2022-10-30T17:26:11;42.10;;;23.38;;
55090;SDS011;40985;53.180;5.800;2022-10-30T17:28:38;37.15;;;22.80;;
55090;SDS011;40985;53.180;5.800;2022-10-30T17:34:26;48.83;;;34.05;;
55090;SDS011;40985;53.180;5.800;2022-10-30T17:36:46;42.83;;;28.17;;
55090;SDS011;40985;53.180;5.800;2022-10-30T17:39:12;35.22;;;21.95;;
55090;SDS011;40985;53.180;5.800;2022-10-30T17:41:39;61.63;;;42.60;;
55090;SDS011;40985;53.180;5.800;2022-10-30T17:44:06;159.43;;;124.15;;
55090;SDS011;40985;53.180;5.800;2022-10-30T17:46:41;56.85;;;34.85;;